createdAt,value
2018-06-10T00:00:19.785Z,39.94
2018-06-10T00:01:20.078Z,39.86
2018-06-10T00:02:20.095Z,40.05
2018-06-10T00:03:19.863Z,40.13
2018-06-10T00:04:20.171Z,40.23
2018-06-10T00:05:20.197Z,40.13
2018-06-10T00:06:19.949Z,40.03
2018-06-10T00:07:20.232Z,40.13
2018-06-10T00:08:20.274Z,40.42
2018-06-10T00:09:20.299Z,40.33
2018-06-10T00:10:20.311Z,40.33
2018-06-10T00:11:20.341Z,40.52
2018-06-10T00:12:20.382Z,40.23
2018-06-10T00:13:20.406Z,40.52
2018-06-10T00:14:20.426Z,40.42
2018-06-10T00:15:20.464Z,40.23
2018-06-10T00:16:20.219Z,40.13
2018-06-10T00:17:20.517Z,40.33
2018-06-10T00:18:20.537Z,40.42
2018-06-10T00:19:20.564Z,40.61
2018-06-10T00:20:20.588Z,41.1
2018-06-10T00:21:20.629Z,40.52
2018-06-10T00:22:20.636Z,40.79
2018-06-10T00:23:20.678Z,40.91
2018-06-10T00:24:20.443Z,40.91
2018-06-10T00:25:20.745Z,40.91
2018-06-10T00:26:20.751Z,40.91
2018-06-10T00:27:20.794Z,41
2018-06-10T00:28:20.803Z,40.91
2018-06-10T00:29:20.578Z,40.89
2018-06-10T00:30:20.869Z,40.81
2018-06-10T00:31:20.893Z,40.89
2018-06-10T00:32:20.911Z,40.79
2018-06-10T00:33:20.936Z,40.79
2018-06-10T00:34:20.965Z,40.69
2018-06-10T00:35:20.750Z,40.79
2018-06-10T00:36:21.028Z,40.69
2018-06-10T00:37:21.047Z,40.89
2018-06-10T00:38:20.816Z,41.17
2018-06-10T00:39:20.839Z,40.99
2018-06-10T00:40:21.137Z,41.17
2018-06-10T00:41:21.149Z,41.17
2018-06-10T00:42:21.197Z,40.99
2018-06-10T00:43:21.210Z,41.27
2018-06-10T00:44:21.258Z,41.37
2018-06-10T00:45:21.283Z,41.08
2018-06-10T00:46:21.309Z,41.47
2018-06-10T00:47:21.052Z,41.37
2018-06-10T00:48:21.346Z,41.47
2018-06-10T00:49:21.393Z,41.47
2018-06-10T00:50:21.410Z,41.56
2018-06-10T00:51:21.181Z,41.56
2018-06-10T00:52:21.183Z,41.37
2018-06-10T00:53:21.486Z,41.45
2018-06-10T00:54:21.522Z,41.56
2018-06-10T00:55:21.532Z,41.35
2018-06-10T00:56:21.583Z,41.55
2018-06-10T00:57:21.587Z,41.47
2018-06-10T00:58:21.626Z,41.45
2018-06-10T00:59:21.641Z,41.35
2018-06-10T01:00:21.673Z,41.35
2018-06-10T01:01:21.711Z,41.35
2018-06-10T01:02:21.727Z,41.35
2018-06-10T01:03:21.764Z,41.35
2018-06-10T01:04:21.776Z,41.74
2018-06-10T01:05:21.811Z,41.74
2018-06-10T01:06:21.839Z,42.13
2018-06-10T01:07:21.593Z,42.03
2018-06-10T01:08:21.881Z,42.13
2018-06-10T01:09:21.915Z,42.13
2018-06-10T01:10:21.952Z,42.13
2018-06-10T01:11:21.714Z,42.13
2018-06-10T01:12:36.624Z,42.03
2018-06-10T01:13:22.032Z,42.22
2018-06-10T01:14:22.052Z,42.32
2018-06-10T01:15:22.295Z,42.41
2018-06-10T01:16:21.842Z,42.41
2018-06-10T01:17:22.173Z,42.51
2018-06-10T01:18:22.153Z,42.51
2018-06-10T01:19:22.191Z,42.41
2018-06-10T01:20:22.225Z,42.41
2018-06-10T01:21:22.435Z,42.41
2018-06-10T01:22:22.259Z,42.4
2018-06-10T01:23:22.286Z,42.22
2018-06-10T01:24:22.319Z,42.49
2018-06-10T01:25:22.330Z,42.49
2018-06-10T01:26:22.387Z,42.59
2018-06-10T01:27:22.130Z,42.3
2018-06-10T01:28:22.158Z,42.88
2018-06-10T01:29:22.444Z,42.88
2018-06-10T01:30:22.482Z,42.97
2018-06-10T01:31:22.488Z,42.68
2018-06-10T01:32:22.543Z,42.68
2018-06-10T01:33:22.550Z,43.27
2018-06-10T01:34:22.589Z,43.27
2018-06-10T01:35:22.596Z,43.07
2018-06-10T01:36:22.644Z,43.27
2018-06-10T01:37:22.679Z,43.37
2018-06-10T01:38:22.705Z,43.27
2018-06-10T01:39:22.714Z,43.46
2018-06-10T01:40:22.800Z,43.17
2018-06-10T01:41:22.759Z,43.07
2018-06-10T01:42:22.788Z,43.27
2018-06-10T01:43:22.828Z,43.07
2018-06-10T01:44:22.855Z,43.07
2018-06-10T01:45:22.885Z,42.97
2018-06-10T01:46:22.890Z,42.97
2018-06-10T01:47:22.939Z,42.97
2018-06-10T01:48:22.944Z,42.78
2018-06-10T01:49:22.984Z,42.86
2018-06-10T01:50:23.011Z,43.17
2018-06-10T01:51:23.043Z,43.17
2018-06-10T01:52:23.045Z,43.34
2018-06-10T01:53:23.076Z,43.65
2018-06-10T01:54:23.103Z,43.75
2018-06-10T01:55:22.879Z,43.54
2018-06-10T01:56:23.168Z,43.63
2018-06-10T01:57:23.255Z,43.92
2018-06-10T01:58:23.229Z,43.24
2018-06-10T01:59:23.234Z,43.73
2018-06-10T02:00:23.265Z,43.34
2018-06-10T02:01:23.284Z,43.92
2018-06-10T02:02:23.333Z,44.02
2018-06-10T02:03:23.349Z,43.44
2018-06-10T02:04:23.369Z,44.02
2018-06-10T02:05:23.402Z,43.54
2018-06-10T02:06:23.420Z,43.24
2018-06-10T02:07:23.187Z,43.24
2018-06-10T02:08:23.538Z,43.44
2018-06-10T02:09:23.510Z,43.73
2018-06-10T02:10:23.252Z,43.82
2018-06-10T02:11:23.557Z,43.73
2018-06-10T02:12:23.594Z,43.82
2018-06-10T02:13:23.611Z,44.02
2018-06-10T02:14:23.630Z,43.54
2018-06-10T02:15:23.669Z,43.73
2018-06-10T02:16:23.680Z,43.63
2018-06-10T02:17:23.436Z,43.63
2018-06-10T02:18:23.482Z,43.73
2018-06-10T02:19:23.766Z,43.82
2018-06-10T02:20:23.786Z,44.21
2018-06-10T02:21:23.813Z,44.21
2018-06-10T02:22:23.849Z,44.21
2018-06-10T02:23:23.934Z,44.12
2018-06-10T02:24:23.899Z,44.12
2018-06-10T02:25:23.920Z,44.02
2018-06-10T02:26:24.138Z,44.12
2018-06-10T02:27:23.968Z,43.73
2018-06-10T02:28:23.736Z,44.21
2018-06-10T02:29:24.031Z,43.82
2018-06-10T02:30:24.072Z,44.02
2018-06-10T02:31:24.090Z,43.92
2018-06-10T02:32:24.300Z,43.92
2018-06-10T02:33:24.129Z,44.31
2018-06-10T02:34:24.182Z,43.99
2018-06-10T02:35:24.187Z,44.19
2018-06-10T02:36:24.214Z,44.31
2018-06-10T02:37:23.968Z,44.31
2018-06-10T02:38:24.461Z,44.29
2018-06-10T02:39:24.027Z,44.5
2018-06-10T02:40:24.324Z,44.31
2018-06-10T02:41:24.332Z,44.29
2018-06-10T02:42:24.603Z,44.38
2018-06-10T02:43:24.119Z,44.21
2018-06-10T02:44:24.422Z,44.29
2018-06-10T02:45:24.452Z,44.48
2018-06-10T02:46:24.465Z,44.48
2018-06-10T02:47:24.510Z,44.67
2018-06-10T02:48:24.530Z,44.38
2018-06-10T02:49:24.567Z,44.57
2018-06-10T02:50:24.585Z,44.57
2018-06-10T02:51:24.606Z,44.29
2018-06-10T02:52:24.637Z,44.48
2018-06-10T02:53:24.379Z,44.67
2018-06-10T02:54:24.688Z,44.48
2018-06-10T02:55:24.708Z,44.77
2018-06-10T02:56:24.753Z,44.67
2018-06-10T02:57:24.486Z,44.57
2018-06-10T02:58:24.767Z,44.48
2018-06-10T02:59:24.810Z,44.77
2018-06-10T03:00:24.566Z,44.67
2018-06-10T03:01:24.849Z,44.57
2018-06-10T03:02:24.616Z,44.67
2018-06-10T03:03:24.902Z,44.77
2018-06-10T03:04:24.941Z,44.67
2018-06-10T03:05:24.973Z,44.87
2018-06-10T03:06:24.981Z,44.77
2018-06-10T03:07:25.009Z,44.67
2018-06-10T03:08:25.046Z,44.87
2018-06-10T03:09:25.075Z,44.67
2018-06-10T03:10:25.087Z,44.96
2018-06-10T03:11:25.111Z,45.06
2018-06-10T03:12:25.145Z,45.16
2018-06-10T03:13:25.156Z,44.94
2018-06-10T03:14:24.930Z,45.06
2018-06-10T03:15:25.226Z,45.33
2018-06-10T03:16:25.250Z,45.33
2018-06-10T03:17:25.016Z,45.23
2018-06-10T03:18:25.289Z,45.35
2018-06-10T03:19:25.337Z,45.23
2018-06-10T03:20:25.358Z,45.16
2018-06-10T03:21:25.374Z,45.23
2018-06-10T03:22:25.389Z,45.42
2018-06-10T03:23:25.435Z,45.04
2018-06-10T03:24:25.443Z,45.42
2018-06-10T03:25:25.488Z,45.42
2018-06-10T03:26:25.504Z,45.62
2018-06-10T03:27:25.521Z,45.52
2018-06-10T03:28:25.538Z,45.62
2018-06-10T03:29:25.566Z,45.42
2018-06-10T03:30:25.614Z,45.52
2018-06-10T03:31:25.639Z,45.42
2018-06-10T03:32:25.650Z,45.72
2018-06-10T03:33:25.685Z,45.62
2018-06-10T03:34:25.432Z,45.72
2018-06-10T03:35:25.725Z,45.62
2018-06-10T03:36:25.763Z,45.62
2018-06-10T03:37:25.768Z,45.62
2018-06-10T03:38:25.818Z,45.81
2018-06-10T03:39:25.842Z,45.81
2018-06-10T03:40:25.864Z,46.2
2018-06-10T03:41:25.886Z,46.2
2018-06-10T03:42:25.642Z,46
2018-06-10T03:43:25.672Z,46.1
2018-06-10T03:44:25.681Z,45.91
2018-06-10T03:45:25.988Z,46
2018-06-10T03:46:26.009Z,46.1
2018-06-10T03:47:25.771Z,46
2018-06-10T03:48:26.058Z,46.2
2018-06-10T03:49:26.075Z,46.1
2018-06-10T03:50:25.841Z,46.2
2018-06-10T03:51:26.130Z,46
2018-06-10T03:52:26.153Z,46.2
2018-06-10T03:53:26.181Z,46.1
2018-06-10T03:54:26.272Z,46.39
2018-06-10T03:55:26.226Z,46.3
2018-06-10T03:56:26.274Z,46.49
2018-06-10T03:57:26.285Z,46.39
2018-06-10T03:58:26.318Z,46.39
2018-06-10T03:59:26.334Z,46.39
2018-06-10T04:00:26.370Z,46.3
2018-06-10T04:01:26.120Z,46.88
2018-06-10T04:02:26.436Z,46.49
2018-06-10T04:03:26.176Z,46.58
2018-06-10T04:04:26.204Z,46.58
2018-06-10T04:05:26.218Z,46.49
2018-06-10T04:06:26.243Z,46.68
2018-06-10T04:07:26.555Z,46.88
2018-06-10T04:08:26.554Z,46.3
2018-06-10T04:09:26.321Z,46.39
2018-06-10T04:10:26.615Z,46.49
2018-06-10T04:11:26.645Z,46.78
2018-06-10T04:12:26.661Z,46.58
2018-06-10T04:13:26.705Z,46.97
2018-06-10T04:14:26.457Z,46.78
2018-06-10T04:15:26.751Z,46.68
2018-06-10T04:16:26.780Z,46.78
2018-06-10T04:17:26.788Z,47.36
2018-06-10T04:18:26.557Z,46.88
2018-06-10T04:19:26.572Z,47.26
2018-06-10T04:20:26.882Z,47.45
2018-06-10T04:21:26.916Z,47.16
2018-06-10T04:22:26.917Z,47.36
2018-06-10T04:23:26.944Z,47.07
2018-06-10T04:24:26.705Z,46.97
2018-06-10T04:25:27.004Z,47.07
2018-06-10T04:26:27.040Z,47.07
2018-06-10T04:27:26.794Z,47.16
2018-06-10T04:28:26.824Z,47.07
2018-06-10T04:29:26.838Z,47.26
2018-06-10T04:30:26.866Z,47.26
2018-06-10T04:31:27.150Z,47.07
2018-06-10T04:32:26.902Z,47.16
2018-06-10T04:33:27.202Z,47.55
2018-06-10T04:34:26.958Z,47.45
2018-06-10T04:35:27.270Z,46.97
2018-06-10T04:36:27.295Z,47.26
2018-06-10T04:37:27.296Z,47.26
2018-06-10T04:38:27.348Z,47.74
2018-06-10T04:39:27.089Z,47.45
2018-06-10T04:40:27.380Z,47.36
2018-06-10T04:41:27.410Z,47.74
2018-06-10T04:42:27.456Z,47.65
2018-06-10T04:43:27.184Z,47.84
2018-06-10T04:44:27.214Z,47.45
2018-06-10T04:45:27.239Z,47.36
2018-06-10T04:46:27.552Z,47.45
2018-06-10T04:47:27.558Z,47.38
2018-06-10T04:48:27.326Z,47.36
2018-06-10T04:49:27.359Z,47.48
2018-06-10T04:50:27.642Z,47.38
2018-06-10T04:51:27.664Z,47.58
2018-06-10T04:52:27.690Z,47.77
2018-06-10T04:53:27.720Z,47.58
2018-06-10T04:54:27.486Z,47.48
2018-06-10T04:55:27.760Z,47.67
2018-06-10T04:56:27.801Z,47.67
2018-06-10T04:57:27.823Z,47.58
2018-06-10T04:58:27.572Z,47.28
2018-06-10T04:59:27.594Z,47.19
2018-06-10T05:00:27.902Z,47.58
2018-06-10T05:01:27.927Z,47.19
2018-06-10T05:02:27.666Z,47.96
2018-06-10T05:03:27.701Z,47.67
2018-06-10T05:04:27.985Z,47.77
2018-06-10T05:05:28.014Z,47.58
2018-06-10T05:06:28.034Z,47.67
2018-06-10T05:07:27.798Z,47.67
2018-06-10T05:08:28.102Z,47.19
2018-06-10T05:09:27.845Z,46.9
2018-06-10T05:10:28.156Z,47.38
2018-06-10T05:11:28.161Z,47.77
2018-06-10T05:12:27.936Z,47.48
2018-06-10T05:13:28.234Z,47.28
2018-06-10T05:14:28.257Z,47.58
2018-06-10T05:15:28.281Z,47.58
2018-06-10T05:16:28.292Z,47.67
2018-06-10T05:17:28.337Z,47.86
2018-06-10T05:18:28.345Z,47.77
2018-06-10T05:19:28.391Z,47.6
2018-06-10T05:20:28.397Z,47.6
2018-06-10T05:21:28.437Z,47.5
2018-06-10T05:22:28.460Z,47.31
2018-06-10T05:23:28.486Z,47.79
2018-06-10T05:24:28.237Z,47.6
2018-06-10T05:25:28.515Z,47.11
2018-06-10T05:26:28.558Z,47.21
2018-06-10T05:27:28.590Z,47.69
2018-06-10T05:28:28.609Z,47.69
2018-06-10T05:29:28.616Z,47.6
2018-06-10T05:30:28.643Z,47.89
2018-06-10T05:31:28.690Z,47.89
2018-06-10T05:32:28.705Z,47.69
2018-06-10T05:33:28.749Z,47.69
2018-06-10T05:34:28.763Z,48.08
2018-06-10T05:35:28.784Z,47.69
2018-06-10T05:36:28.813Z,48.08
2018-06-10T05:37:28.851Z,48.18
2018-06-10T05:38:28.868Z,47.69
2018-06-10T05:39:28.889Z,47.69
2018-06-10T05:40:28.902Z,47.21
2018-06-10T05:41:28.945Z,47.6
2018-06-10T05:42:28.691Z,47.5
2018-06-10T05:43:28.731Z,47.6
2018-06-10T05:44:29.011Z,47.91
2018-06-10T05:45:28.763Z,47.62
2018-06-10T05:46:29.077Z,47.41
2018-06-10T05:47:29.084Z,47.91
2018-06-10T05:48:29.114Z,47.81
2018-06-10T05:49:29.157Z,47.69
2018-06-10T05:50:29.175Z,47.24
2018-06-10T05:51:29.210Z,47.81
2018-06-10T05:52:29.215Z,48.01
2018-06-10T05:53:29.260Z,47.72
2018-06-10T05:54:29.290Z,47.43
2018-06-10T05:55:29.306Z,47.52
2018-06-10T05:56:29.336Z,47.24
2018-06-10T05:57:29.442Z,47.26
2018-06-10T05:58:29.390Z,47.14
2018-06-10T05:59:29.416Z,47.62
2018-06-10T06:00:29.485Z,47.45
2018-06-10T06:01:29.451Z,47.84
2018-06-10T06:02:29.484Z,47.64
2018-06-10T06:03:29.517Z,47.74
2018-06-10T06:04:29.302Z,47.64
2018-06-10T06:05:29.557Z,47.36
2018-06-10T06:06:29.600Z,47.06
2018-06-10T06:07:29.341Z,47.36
2018-06-10T06:08:29.623Z,47.45
2018-06-10T06:09:29.660Z,47.36
2018-06-10T06:10:29.699Z,47.36
2018-06-10T06:11:29.729Z,47.84
2018-06-10T06:12:29.732Z,47.74
2018-06-10T06:13:29.831Z,47.64
2018-06-10T06:14:29.820Z,47.45
2018-06-10T06:15:29.546Z,47.55
2018-06-10T06:16:29.591Z,47.26
2018-06-10T06:17:29.861Z,47.19
2018-06-10T06:18:29.905Z,47.16
2018-06-10T06:19:29.910Z,47.16
2018-06-10T06:20:29.946Z,46.8
2018-06-10T06:21:29.965Z,47.19
2018-06-10T06:22:30.012Z,46.8
2018-06-10T06:23:30.025Z,47.28
2018-06-10T06:24:30.064Z,47.19
2018-06-10T06:25:30.073Z,46.99
2018-06-10T06:26:29.832Z,47.09
2018-06-10T06:27:30.199Z,47.38
2018-06-10T06:28:30.151Z,47.19
2018-06-10T06:29:30.177Z,47.19
2018-06-10T06:30:29.928Z,47.28
2018-06-10T06:31:30.232Z,47.19
2018-06-10T06:32:30.247Z,47.19
2018-06-10T06:33:30.281Z,47.28
2018-06-10T06:34:30.315Z,47.28
2018-06-10T06:35:30.353Z,47.09
2018-06-10T06:36:30.373Z,47.3
2018-06-10T06:37:30.406Z,47.11
2018-06-10T06:38:30.149Z,47.4
2018-06-10T06:39:30.565Z,47.5
2018-06-10T06:40:30.470Z,47.5
2018-06-10T06:41:30.221Z,47.2
2018-06-10T06:42:30.520Z,46.92
2018-06-10T06:43:30.560Z,46.82
2018-06-10T06:44:30.591Z,46.92
2018-06-10T06:45:30.338Z,46.92
2018-06-10T06:46:30.646Z,46.92
2018-06-10T06:47:30.669Z,46.92
2018-06-10T06:48:30.685Z,46.82
2018-06-10T06:49:30.711Z,46.82
2018-06-10T06:50:30.731Z,47.11
2018-06-10T06:51:30.752Z,47.3
2018-06-10T06:52:30.882Z,47.11
2018-06-10T06:53:30.549Z,47.11
2018-06-10T06:54:30.848Z,47.11
2018-06-10T06:55:30.589Z,47.13
2018-06-10T06:56:30.915Z,47.03
2018-06-10T06:57:30.917Z,47.23
2018-06-10T06:58:30.956Z,47.13
2018-06-10T06:59:30.979Z,46.94
2018-06-10T07:00:30.995Z,47.13
2018-06-10T07:01:31.042Z,46.84
2018-06-10T07:02:31.056Z,46.84
2018-06-10T07:03:31.068Z,46.55
2018-06-10T07:04:31.099Z,46.45
2018-06-10T07:05:31.146Z,46.28
2018-06-10T07:06:31.177Z,46.28
2018-06-10T07:07:31.183Z,46.19
2018-06-10T07:08:30.950Z,46.09
2018-06-10T07:09:31.226Z,45.8
2018-06-10T07:10:31.260Z,45.8
2018-06-10T07:11:31.280Z,45.89
2018-06-10T07:12:31.321Z,45.8
2018-06-10T07:13:31.344Z,45.8
2018-06-10T07:14:31.373Z,45.72
2018-06-10T07:15:31.387Z,45.62
2018-06-10T07:16:31.163Z,45.53
2018-06-10T07:17:31.469Z,45.43
2018-06-10T07:18:31.471Z,45.62
2018-06-10T07:19:31.511Z,45.62
2018-06-10T07:20:31.523Z,45.43
2018-06-10T07:21:31.569Z,45.53
2018-06-10T07:22:31.600Z,45.53
2018-06-10T07:23:31.611Z,45.34
2018-06-10T07:24:31.629Z,45.43
2018-06-10T07:25:31.664Z,45.36
2018-06-10T07:26:31.713Z,45.17
2018-06-10T07:27:31.737Z,44.87
2018-06-10T07:28:31.746Z,44.97
2018-06-10T07:29:31.772Z,45.07
2018-06-10T07:30:31.870Z,45.07
2018-06-10T07:31:31.829Z,44.97
2018-06-10T07:32:31.856Z,44.87
2018-06-10T07:33:31.988Z,44.78
2018-06-10T07:34:31.926Z,44.78
2018-06-10T07:35:31.938Z,44.68
2018-06-10T07:36:31.964Z,44.48
2018-06-10T07:37:32.007Z,44.58
2018-06-10T07:38:32.035Z,43.9
2018-06-10T07:39:32.066Z,44.21
2018-06-10T07:40:32.141Z,44.09
2018-06-10T07:41:32.127Z,44.12
2018-06-10T07:42:32.151Z,44.41
2018-06-10T07:43:32.166Z,44.12
2018-06-10T07:44:32.193Z,44.21
2018-06-10T07:45:32.210Z,44.12
2018-06-10T07:46:32.247Z,43.92
2018-06-10T07:47:32.274Z,43.63
2018-06-10T07:48:32.059Z,44.02
2018-06-10T07:49:32.318Z,44.02
2018-06-10T07:50:32.349Z,43.82
2018-06-10T07:51:32.369Z,43.73
2018-06-10T07:52:32.401Z,43.65
2018-06-10T07:53:32.171Z,43.85
2018-06-10T07:54:32.506Z,44.24
2018-06-10T07:55:32.475Z,44.04
2018-06-10T07:56:32.252Z,43.95
2018-06-10T07:57:32.546Z,43.65
2018-06-10T07:58:32.563Z,43.46
2018-06-10T07:59:32.596Z,43.16
2018-06-10T08:00:32.637Z,43.07
2018-06-10T08:01:32.380Z,43.26
2018-06-10T08:02:32.415Z,43.55
2018-06-10T08:03:32.720Z,43.07
2018-06-10T08:04:32.459Z,42.68
2018-06-10T08:05:32.919Z,42.97
2018-06-10T08:06:32.805Z,43.07
2018-06-10T08:07:32.814Z,42.78
2018-06-10T08:08:32.582Z,42.58
2018-06-10T08:09:32.882Z,42.58
2018-06-10T08:10:32.633Z,42.7
2018-06-10T08:11:32.991Z,42.6
2018-06-10T08:12:32.970Z,42.41
2018-06-10T08:13:32.982Z,42.5
2018-06-10T08:14:32.742Z,42.5
2018-06-10T08:15:33.057Z,42.5
2018-06-10T08:16:33.075Z,42.21
2018-06-10T08:17:33.094Z,42.49
2018-06-10T08:18:33.414Z,42.41
2018-06-10T08:19:32.895Z,42.41
2018-06-10T08:20:32.916Z,42.11
2018-06-10T08:21:32.945Z,42.11
2018-06-10T08:22:33.250Z,42.21
2018-06-10T08:23:33.285Z,42.31
2018-06-10T08:24:33.339Z,41.34
2018-06-10T08:25:33.324Z,42.11
2018-06-10T08:26:33.577Z,41.93
2018-06-10T08:27:33.118Z,41.53
2018-06-10T08:28:33.423Z,41.44
2018-06-10T08:29:33.431Z,41.63
2018-06-10T08:30:33.203Z,41.53
2018-06-10T08:31:33.215Z,41.44
2018-06-10T08:32:33.513Z,41.63
2018-06-10T08:33:33.547Z,41.63
2018-06-10T08:34:33.572Z,41.73
2018-06-10T08:35:33.336Z,41.53
2018-06-10T08:36:33.358Z,41.44
2018-06-10T08:37:33.666Z,41.34
2018-06-10T08:38:33.687Z,41.93
2018-06-10T08:39:33.731Z,42.21
2018-06-10T08:40:33.742Z,42.31
2018-06-10T08:41:33.767Z,42.31
2018-06-10T08:42:33.801Z,42.31
2018-06-10T08:43:33.846Z,42.41
2018-06-10T08:44:33.857Z,42.7
2018-06-10T08:45:33.884Z,42.41
2018-06-10T08:46:33.933Z,42.21
2018-06-10T08:47:33.951Z,42.5
2018-06-10T08:48:33.714Z,42.6
2018-06-10T08:49:33.986Z,42.8
2018-06-10T08:50:33.773Z,42.9
2018-06-10T08:51:33.787Z,42.9
2018-06-10T08:52:34.085Z,42.8
2018-06-10T08:53:34.127Z,42.9
2018-06-10T08:54:34.156Z,43.09
2018-06-10T08:55:34.176Z,42.99
2018-06-10T08:56:34.186Z,42.9
2018-06-10T08:57:34.064Z,42.8
2018-06-10T08:58:34.252Z,43.09
2018-06-10T08:59:34.293Z,42.99
2018-06-10T09:00:34.304Z,42.99
2018-06-10T09:01:34.339Z,42.9
2018-06-10T09:02:34.368Z,42.9
2018-06-10T09:03:34.409Z,42.99
2018-06-10T09:04:34.416Z,42.99
2018-06-10T09:05:34.456Z,42.8
2018-06-10T09:06:34.477Z,42.53
2018-06-10T09:07:34.521Z,43.01
2018-06-10T09:08:34.659Z,42.72
2018-06-10T09:09:34.583Z,42.9
2018-06-10T09:10:34.602Z,42.72
2018-06-10T09:11:34.633Z,42.72
2018-06-10T09:12:34.878Z,42.91
2018-06-10T09:13:34.724Z,42.63
2018-06-10T09:14:34.434Z,42.82
2018-06-10T09:15:34.742Z,42.63
2018-06-10T09:16:34.773Z,42.91
2018-06-10T09:17:34.545Z,42.82
2018-06-10T09:18:34.841Z,42.91
2018-06-10T09:19:34.978Z,42.72
2018-06-10T09:20:34.926Z,42.91
2018-06-10T09:21:34.905Z,43.21
2018-06-10T09:22:34.932Z,42.91
2018-06-10T09:23:34.959Z,43.01
2018-06-10T09:24:34.993Z,42.63
2018-06-10T09:25:35.031Z,42.91
2018-06-10T09:26:35.058Z,42.63
2018-06-10T09:27:35.075Z,42.72
2018-06-10T09:28:35.107Z,42.91
2018-06-10T09:29:35.133Z,42.82
2018-06-10T09:30:34.904Z,42.63
2018-06-10T09:31:35.210Z,42.63
2018-06-10T09:32:35.230Z,42.82
2018-06-10T09:33:35.368Z,42.43
2018-06-10T09:34:35.275Z,42.72
2018-06-10T09:35:35.469Z,42.63
2018-06-10T09:36:35.332Z,42.72
2018-06-10T09:37:35.579Z,42.53
2018-06-10T09:38:35.392Z,42.72
2018-06-10T09:39:35.422Z,42.43
2018-06-10T09:40:35.501Z,42.72
2018-06-10T09:41:35.477Z,42.74
2018-06-10T09:42:35.232Z,42.55
2018-06-10T09:43:35.267Z,42.74
2018-06-10T09:44:35.577Z,42.74
2018-06-10T09:45:35.589Z,42.65
2018-06-10T09:46:35.629Z,42.65
2018-06-10T09:47:35.375Z,42.65
2018-06-10T09:48:35.418Z,42.74
2018-06-10T09:49:35.717Z,42.55
2018-06-10T09:50:35.779Z,42.25
2018-06-10T09:51:35.778Z,42.65
2018-06-10T09:52:35.528Z,42.25
2018-06-10T09:53:35.826Z,42.35
2018-06-10T09:54:35.847Z,42.16
2018-06-10T09:55:35.739Z,42.45
2018-06-10T09:56:35.917Z,42.25
2018-06-10T09:57:35.951Z,42.06
2018-06-10T09:58:35.700Z,42.06
2018-06-10T09:59:35.993Z,42.06
2018-06-10T10:00:36.086Z,41.96
2018-06-10T10:01:36.064Z,41.86
2018-06-10T10:02:35.820Z,42.45
2018-06-10T10:03:36.120Z,42.06
2018-06-10T10:04:36.141Z,42.16
2018-06-10T10:05:36.222Z,42.25
2018-06-10T10:06:36.204Z,42.16
2018-06-10T10:07:36.221Z,42.47
2018-06-10T10:08:36.257Z,42.18
2018-06-10T10:09:36.020Z,41.99
2018-06-10T10:10:36.356Z,41.69
2018-06-10T10:11:36.353Z,41.57
2018-06-10T10:12:36.390Z,41.6
2018-06-10T10:13:36.405Z,41.5
2018-06-10T10:14:36.265Z,42.08
2018-06-10T10:15:36.235Z,41.6
2018-06-10T10:16:36.479Z,41.6
2018-06-10T10:17:36.531Z,41.69
2018-06-10T10:18:36.552Z,41.4
2018-06-10T10:19:36.572Z,41.69
2018-06-10T10:20:36.643Z,41.89
2018-06-10T10:21:36.643Z,41.89
2018-06-10T10:22:36.670Z,41.6
2018-06-10T10:23:36.684Z,41.6
2018-06-10T10:24:36.732Z,41.69
2018-06-10T10:25:36.798Z,41.6
2018-06-10T10:26:36.524Z,41.4
2018-06-10T10:27:36.821Z,41.6
2018-06-10T10:28:36.575Z,41.6
2018-06-10T10:29:36.892Z,41.5
2018-06-10T10:30:36.903Z,41.4
2018-06-10T10:31:36.933Z,41.5
2018-06-10T10:32:36.680Z,41.52
2018-06-10T10:33:36.992Z,41.42
2018-06-10T10:34:37.023Z,41.13
2018-06-10T10:35:37.040Z,41.01
2018-06-10T10:36:37.085Z,41.13
2018-06-10T10:37:36.830Z,40.93
2018-06-10T10:38:37.359Z,41.22
2018-06-10T10:39:37.165Z,41.32
2018-06-10T10:40:37.237Z,40.73
2018-06-10T10:41:37.210Z,40.64
2018-06-10T10:42:37.254Z,40.64
2018-06-10T10:43:37.280Z,40.64
2018-06-10T10:44:39.530Z,40.55
2018-06-10T10:45:37.338Z,40.64
2018-06-10T10:46:37.366Z,40.47
2018-06-10T10:47:37.126Z,40.37
2018-06-10T10:48:37.426Z,40.17
2018-06-10T10:49:37.221Z,40.27
2018-06-10T10:50:37.538Z,40.27
2018-06-10T10:51:37.513Z,40.09
2018-06-10T10:52:37.552Z,40.09
2018-06-10T10:53:37.577Z,40.09
2018-06-10T10:54:37.326Z,39.8
2018-06-10T10:55:37.705Z,39.61
2018-06-10T10:56:37.662Z,39.51
2018-06-10T10:57:37.703Z,39.61
2018-06-10T10:58:37.740Z,39.31
2018-06-10T10:59:37.766Z,39.22
2018-06-10T11:00:37.829Z,39.12
2018-06-10T11:01:37.537Z,39.12
2018-06-10T11:02:37.836Z,39.22
2018-06-10T11:03:37.876Z,39.04
2018-06-10T11:04:37.625Z,38.84
2018-06-10T11:05:37.748Z,38.84
2018-06-10T11:06:37.968Z,38.94
2018-06-10T11:07:37.989Z,38.75
2018-06-10T11:08:38.031Z,38.65
2018-06-10T11:09:38.051Z,38.84
2018-06-10T11:10:38.136Z,38.84
2018-06-10T11:11:38.100Z,38.55
2018-06-10T11:12:38.145Z,38.67
2018-06-10T11:13:38.178Z,37.99
2018-06-10T11:14:38.207Z,37.79
2018-06-10T11:15:38.278Z,38.28
2018-06-10T11:16:38.260Z,38.38
2018-06-10T11:17:38.288Z,38.28
2018-06-10T11:18:38.315Z,38.28
2018-06-10T11:19:38.360Z,38.38
2018-06-10T11:20:38.413Z,38.18
2018-06-10T11:21:38.396Z,38.48
2018-06-10T11:22:38.434Z,38.4
2018-06-10T11:23:38.461Z,38.48
2018-06-10T11:24:38.234Z,38.4
2018-06-10T11:25:38.527Z,38.3
2018-06-10T11:26:38.282Z,38.1
2018-06-10T11:27:38.594Z,38.01
2018-06-10T11:28:38.620Z,38.2
2018-06-10T11:29:38.385Z,38.01
2018-06-10T11:30:38.732Z,38.2
2018-06-10T11:31:38.702Z,37.71
2018-06-10T11:32:38.747Z,37.52
2018-06-10T11:33:38.773Z,37.52
2018-06-10T11:34:38.815Z,37.22
2018-06-10T11:35:38.553Z,37.43
2018-06-10T11:36:38.849Z,37.54
2018-06-10T11:37:38.896Z,37.43
2018-06-10T11:38:38.924Z,37.24
2018-06-10T11:39:38.949Z,37.34
2018-06-10T11:40:38.716Z,37.24
2018-06-10T11:41:38.997Z,37.24
2018-06-10T11:42:39.189Z,37.04
2018-06-10T11:43:39.068Z,37.14
2018-06-10T11:44:39.096Z,37.16
2018-06-10T11:45:39.122Z,36.96
2018-06-10T11:46:38.886Z,36.67
2018-06-10T11:47:39.208Z,36.87
2018-06-10T11:48:39.212Z,36.67
2018-06-10T11:49:39.268Z,36.38
2018-06-10T11:50:39.295Z,36.3
2018-06-10T11:51:39.042Z,36.2
2018-06-10T11:52:39.350Z,36.2
2018-06-10T11:53:39.377Z,36.4
2018-06-10T11:54:39.419Z,36.3
2018-06-10T11:55:39.443Z,36
2018-06-10T11:56:39.194Z,35.81
2018-06-10T11:57:39.509Z,35.42
2018-06-10T11:58:39.271Z,35.91
2018-06-10T11:59:39.559Z,35.93
2018-06-10T12:00:39.604Z,36.02
2018-06-10T12:01:39.618Z,35.73
2018-06-10T12:02:39.668Z,35.44
2018-06-10T12:03:39.678Z,35.55
2018-06-10T12:04:39.724Z,35.45
2018-06-10T12:05:39.478Z,35.25
2018-06-10T12:06:39.783Z,34.67
2018-06-10T12:07:39.817Z,34.59
2018-06-10T12:08:39.831Z,34.88
2018-06-10T12:09:39.870Z,34.3
2018-06-10T12:10:40.053Z,34.39
2018-06-10T12:11:39.663Z,34.88
2018-06-10T12:12:39.978Z,34.8
2018-06-10T12:13:40.026Z,34.11
2018-06-10T12:14:40.018Z,34.21
2018-06-10T12:15:40.063Z,34.21
2018-06-10T12:16:40.252Z,34.21
2018-06-10T12:17:40.133Z,34.21
2018-06-10T12:18:40.143Z,34.31
2018-06-10T12:19:40.191Z,34.03
2018-06-10T12:20:40.225Z,33.94
2018-06-10T12:21:40.256Z,33.64
2018-06-10T12:22:40.426Z,33.94
2018-06-10T12:23:40.048Z,33.64
2018-06-10T12:24:40.344Z,33.54
2018-06-10T12:25:40.366Z,33.64
2018-06-10T12:26:40.130Z,33.44
2018-06-10T12:27:40.160Z,33.46
2018-06-10T12:28:40.196Z,33.75
2018-06-10T12:29:40.237Z,33.75
2018-06-10T12:30:40.538Z,33.56
2018-06-10T12:31:40.573Z,32.97
2018-06-10T12:32:40.598Z,32.97
2018-06-10T12:33:40.359Z,32.78
2018-06-10T12:34:40.670Z,32.28
2018-06-10T12:35:40.713Z,32.38
2018-06-10T12:36:40.723Z,32.48
2018-06-10T12:37:40.485Z,32.28
2018-06-10T12:38:40.526Z,32.28
2018-06-10T12:39:40.813Z,31.89
2018-06-10T12:40:40.863Z,32.09
2018-06-10T12:41:40.608Z,32.09
2018-06-10T12:42:40.656Z,31.7
2018-06-10T12:43:40.958Z,31.89
2018-06-10T12:44:40.999Z,31.79
2018-06-10T12:45:41.023Z,31.81
2018-06-10T12:46:41.033Z,32.1
2018-06-10T12:47:41.086Z,31.81
2018-06-10T12:48:41.126Z,32.01
2018-06-10T12:49:40.873Z,31.61
2018-06-10T12:50:40.911Z,31.92
2018-06-10T12:51:41.222Z,31.53
2018-06-10T12:52:41.227Z,31.13
2018-06-10T12:53:41.002Z,31.43
2018-06-10T12:54:41.320Z,31.23
2018-06-10T12:55:41.344Z,30.74
2018-06-10T12:56:41.108Z,31.04